Terminal Aerodrome Forecast
Issued by NWS

Home | Current Version | Previous Version | Text Only | Print | Product List | Glossary On
Versions: 1 2 3 4 5 6 7 8 9 10 11 12 13 14 15 16 17 18 19 20 21 22 23 24 25 26 27 28 29 30 31 32 33 34
000
FTUS43 KDVN 261851 AAB
TAFCID
TAF AMD
KCID 261851Z 2619/2718 27020G28KT P6SM VCSH SCT010 BKN025
     FM262100 26015G25KT P6SM BKN035
     FM270100 25008KT P6SM SCT040 BKN250
     FM270900 28007KT P6SM BKN050=

USA.gov is the U.S. government's official web portal to all federal, state and local government web resources and services.